createdAt,value
2017-12-11T00:01:44.310Z,1.80
2017-12-11T00:03:46.972Z,1.80
2017-12-11T00:05:49.699Z,1.70
2017-12-11T00:07:53.149Z,1.70
2017-12-11T00:09:55.805Z,1.70
2017-12-11T00:11:58.486Z,1.70
2017-12-11T00:14:01.177Z,1.80
2017-12-11T00:16:15.931Z,1.80
2017-12-11T00:18:18.595Z,1.80
2017-12-11T00:20:21.315Z,1.80
2017-12-11T00:22:36.011Z,1.90
2017-12-11T00:24:38.667Z,1.80
2017-12-11T00:26:42.127Z,1.80
2017-12-11T00:28:44.807Z,1.70
2017-12-11T00:30:47.476Z,1.80
2017-12-11T00:32:50.158Z,1.80
2017-12-11T00:34:52.815Z,1.80
2017-12-11T00:36:55.482Z,1.90
2017-12-11T00:38:58.155Z,1.80
2017-12-11T00:41:00.857Z,1.70
2017-12-11T00:43:03.554Z,1.90
2017-12-11T00:45:06.262Z,1.90
2017-12-11T00:47:08.960Z,1.90
2017-12-11T00:49:11.678Z,1.80
2017-12-11T00:51:14.410Z,1.90
2017-12-11T00:53:17.080Z,1.80
2017-12-11T00:55:19.744Z,1.80
2017-12-11T00:57:22.427Z,1.80
2017-12-11T00:59:25.090Z,1.90
2017-12-11T01:01:28.577Z,1.80
2017-12-11T01:03:32.094Z,1.80
2017-12-11T01:05:34.795Z,1.80
2017-12-11T01:07:37.535Z,1.70
2017-12-11T01:09:41.004Z,1.70
2017-12-11T01:11:43.652Z,1.70
2017-12-11T01:13:46.358Z,1.70
2017-12-11T01:15:49.022Z,1.60
2017-12-11T01:17:51.719Z,1.60
2017-12-11T01:19:55.164Z,1.50
2017-12-11T01:21:57.816Z,1.50
2017-12-11T01:24:01.690Z,1.50
2017-12-11T01:26:04.334Z,1.40
2017-12-11T01:28:06.986Z,1.30
2017-12-11T01:30:09.659Z,1.40
2017-12-11T01:32:12.362Z,1.30
2017-12-11T01:34:15.013Z,1.20
2017-12-11T01:36:17.686Z,1.20
2017-12-11T01:38:20.355Z,1.30
2017-12-11T01:40:23.062Z,1.20
2017-12-11T01:42:25.825Z,1.20
2017-12-11T01:44:28.512Z,1.10
2017-12-11T01:46:31.211Z,1.00
2017-12-11T01:48:33.922Z,0.90
2017-12-11T01:50:37.385Z,0.80
2017-12-11T01:52:40.055Z,0.80
2017-12-11T01:54:42.804Z,0.70
2017-12-11T01:56:45.490Z,0.70
2017-12-11T01:58:48.161Z,0.60
2017-12-11T02:00:50.846Z,0.70
2017-12-11T02:02:54.249Z,0.70
2017-12-11T02:04:56.940Z,0.70
2017-12-11T02:06:59.594Z,0.70
2017-12-11T02:09:02.248Z,0.80
2017-12-11T02:11:04.963Z,0.70
2017-12-11T02:13:07.614Z,0.60
2017-12-11T02:15:10.311Z,0.70
2017-12-11T02:17:13.037Z,0.80
2017-12-11T02:19:15.733Z,0.70
2017-12-11T02:21:18.427Z,0.70
2017-12-11T02:23:21.126Z,0.60
2017-12-11T02:25:23.814Z,0.70
2017-12-11T02:27:26.512Z,0.60
2017-12-11T02:29:29.995Z,0.70
2017-12-11T02:31:33.468Z,0.60
2017-12-11T02:33:36.173Z,0.50
2017-12-11T02:35:39.697Z,0.50
2017-12-11T02:37:42.414Z,0.50
2017-12-11T02:39:45.107Z,0.50
2017-12-11T02:41:47.818Z,0.60
2017-12-11T02:43:50.607Z,0.60
2017-12-11T02:45:53.308Z,0.60
2017-12-11T02:47:56.028Z,0.60
2017-12-11T02:49:59.500Z,0.50
2017-12-11T02:52:02.197Z,0.50
2017-12-11T02:54:05.715Z,0.20
2017-12-11T02:56:08.379Z,0.20
2017-12-11T02:58:11.800Z,0.10
2017-12-11T03:00:14.473Z,0.10
2017-12-11T03:02:17.155Z,0.10
2017-12-11T03:04:19.813Z,0.10
2017-12-11T03:06:22.484Z,0.20
2017-12-11T03:08:25.133Z,0.20
2017-12-11T03:10:28.020Z,0.10
2017-12-11T03:12:30.711Z,0.10
2017-12-11T03:14:34.128Z,0.10
2017-12-11T03:16:36.811Z,0.10
2017-12-11T03:18:39.451Z,0.10
2017-12-11T03:20:42.896Z,0.10
2017-12-11T03:22:45.584Z,0.00
2017-12-11T03:24:48.255Z,0.20
2017-12-11T03:26:50.922Z,0.20
2017-12-11T03:28:54.373Z,0.40
2017-12-11T03:30:57.819Z,0.40
2017-12-11T03:33:00.522Z,0.40
2017-12-11T03:35:03.202Z,0.40
2017-12-11T03:37:05.868Z,0.30
2017-12-11T03:39:08.591Z,0.30
2017-12-11T03:41:11.285Z,0.30
2017-12-11T03:43:13.950Z,0.40
2017-12-11T03:45:16.616Z,0.50
2017-12-11T03:47:19.267Z,0.60
2017-12-11T03:49:22.918Z,0.60
2017-12-11T03:51:25.639Z,0.50
2017-12-11T03:53:29.110Z,0.50
2017-12-11T03:55:31.793Z,0.40
2017-12-11T03:57:34.464Z,0.40
2017-12-11T03:59:37.234Z,0.40
2017-12-11T04:01:39.890Z,0.40
2017-12-11T04:03:42.577Z,0.40
2017-12-11T04:05:45.420Z,0.30
2017-12-11T04:07:48.069Z,0.30
2017-12-11T04:09:50.732Z,0.30
2017-12-11T04:11:53.373Z,0.30
2017-12-11T04:13:56.016Z,0.30
2017-12-11T04:15:59.463Z,0.20
2017-12-11T04:18:02.119Z,0.20
2017-12-11T04:20:04.795Z,0.20
2017-12-11T04:22:07.459Z,0.20
2017-12-11T04:24:10.100Z,0.20
2017-12-11T04:26:13.554Z,0.20
2017-12-11T04:28:16.205Z,0.10
2017-12-11T04:30:18.875Z,0.20
2017-12-11T04:32:21.558Z,0.10
2017-12-11T04:34:24.200Z,0.10
2017-12-11T04:36:27.646Z,0.10
2017-12-11T04:38:30.311Z,0.10
2017-12-11T04:40:33.040Z,0.10
2017-12-11T04:42:36.534Z,0.10
2017-12-11T04:44:39.182Z,0.00
2017-12-11T04:46:41.834Z,0.10
2017-12-11T04:48:44.507Z,0.00
2017-12-11T04:50:47.143Z,0.00
2017-12-11T04:52:50.562Z,0.00
2017-12-11T04:54:53.225Z,0.00
2017-12-11T04:56:56.632Z,0.00
2017-12-11T04:58:59.291Z,0.00
2017-12-11T05:01:02.740Z,0.10
2017-12-11T05:03:05.388Z,0.10
2017-12-11T05:05:08.078Z,0.00
2017-12-11T05:07:10.860Z,0.00
2017-12-11T05:09:13.612Z,0.00
2017-12-11T05:11:16.300Z,0.00
2017-12-11T05:13:18.998Z,0.00
2017-12-11T05:15:21.692Z,0.10
2017-12-11T05:17:24.391Z,0.10
2017-12-11T05:19:27.905Z,0.10
2017-12-11T05:21:30.590Z,0.10
2017-12-11T05:23:33.275Z,0.10
2017-12-11T05:25:35.940Z,0.10
2017-12-11T05:27:38.614Z,0.10
2017-12-11T05:29:41.322Z,0.10
2017-12-11T05:31:44.008Z,0.10
2017-12-11T05:33:46.691Z,0.10
2017-12-11T05:35:49.535Z,0.10
2017-12-11T05:37:52.185Z,0.10
2017-12-11T05:39:55.614Z,0.10
2017-12-11T05:41:58.347Z,0.20
2017-12-11T05:44:01.790Z,0.10
2017-12-11T05:46:04.469Z,0.10
2017-12-11T05:48:07.160Z,0.10
2017-12-11T05:50:09.813Z,0.10
2017-12-11T05:52:12.463Z,0.10
2017-12-11T05:54:15.200Z,0.10
2017-12-11T05:56:17.855Z,0.20
2017-12-11T05:58:20.579Z,0.20
2017-12-11T06:00:24.046Z,0.10
2017-12-11T06:02:26.715Z,0.10
2017-12-11T06:04:29.371Z,0.10
2017-12-11T06:06:32.052Z,0.10
2017-12-11T06:08:34.712Z,0.10
2017-12-11T06:10:37.383Z,0.10
2017-12-11T06:12:40.131Z,0.10
2017-12-11T06:14:43.586Z,0.10
2017-12-11T06:16:46.265Z,0.10
2017-12-11T06:18:48.954Z,0.10
2017-12-11T06:20:51.609Z,0.10
2017-12-11T06:22:54.298Z,0.10
2017-12-11T06:24:57.013Z,0.10
2017-12-11T06:27:00.630Z,0.10
2017-12-11T06:29:03.282Z,0.10
2017-12-11T06:31:06.710Z,0.10
2017-12-11T06:33:09.461Z,0.10
2017-12-11T06:35:12.917Z,0.10
2017-12-11T06:37:15.565Z,0.10
2017-12-11T06:39:18.220Z,0.10
2017-12-11T06:41:20.917Z,0.10
2017-12-11T06:43:23.595Z,0.10
2017-12-11T06:45:26.274Z,0.10
2017-12-11T06:47:28.938Z,0.10
2017-12-11T06:49:31.978Z,0.10
2017-12-11T06:51:35.416Z,0.10
2017-12-11T06:53:38.079Z,0.10
2017-12-11T06:55:40.767Z,0.10
2017-12-11T06:57:43.447Z,0.10
2017-12-11T06:59:46.146Z,0.20
2017-12-11T07:01:48.782Z,0.10
2017-12-11T07:03:51.474Z,0.10
2017-12-11T07:05:54.133Z,0.20
2017-12-11T07:08:00.776Z,0.20
2017-12-11T07:10:04.286Z,0.20
2017-12-11T07:12:07.695Z,0.20
2017-12-11T07:14:10.342Z,0.20
2017-12-11T07:16:13.776Z,0.20
2017-12-11T07:18:16.453Z,0.20
2017-12-11T07:20:19.107Z,0.20
2017-12-11T07:22:22.550Z,0.20
2017-12-11T07:24:25.199Z,0.20
2017-12-11T07:26:27.840Z,0.20
2017-12-11T07:28:31.291Z,0.30
2017-12-11T07:30:33.937Z,0.30
2017-12-11T07:32:36.584Z,0.30
2017-12-11T07:34:40.054Z,0.30
2017-12-11T07:36:42.719Z,0.30
2017-12-11T07:38:45.361Z,0.30
2017-12-11T07:40:48.057Z,0.30
2017-12-11T07:42:50.721Z,0.30
2017-12-11T07:44:53.581Z,0.40
2017-12-11T07:46:56.253Z,0.40
2017-12-11T07:48:58.896Z,0.40
2017-12-11T07:51:01.537Z,0.40
2017-12-11T07:53:04.205Z,0.40
2017-12-11T07:55:06.888Z,0.40
2017-12-11T07:57:09.521Z,0.40
2017-12-11T07:59:12.954Z,0.50
2017-12-11T08:01:15.601Z,0.50
2017-12-11T08:03:18.284Z,0.50
2017-12-11T08:05:20.954Z,0.50
2017-12-11T08:07:23.617Z,0.50
2017-12-11T08:09:27.043Z,0.50
2017-12-11T08:11:29.729Z,0.50
2017-12-11T08:13:32.370Z,0.50
2017-12-11T08:15:35.193Z,0.60
2017-12-11T08:17:37.867Z,0.50
2017-12-11T08:19:41.646Z,0.60
2017-12-11T08:21:44.890Z,0.50
2017-12-11T08:23:47.597Z,0.60
2017-12-11T08:25:50.256Z,0.60
2017-12-11T08:27:53.686Z,0.50
2017-12-11T08:29:56.369Z,0.50
2017-12-11T08:31:59.032Z,0.50
2017-12-11T08:34:01.690Z,0.50
2017-12-11T08:36:05.144Z,0.50
2017-12-11T08:38:08.213Z,0.50
2017-12-11T08:40:10.969Z,0.50
2017-12-11T08:42:13.640Z,0.50
2017-12-11T08:44:16.322Z,0.50
2017-12-11T08:46:18.979Z,0.50
2017-12-11T08:48:21.691Z,0.40
2017-12-11T08:50:24.355Z,0.40
2017-12-11T08:52:27.330Z,0.40
2017-12-11T08:54:30.153Z,0.40
2017-12-11T08:56:32.855Z,0.40
2017-12-11T08:58:36.342Z,0.30
2017-12-11T09:00:39.023Z,0.30
2017-12-11T09:02:42.446Z,0.30
2017-12-11T09:04:45.119Z,0.30
2017-12-11T09:06:47.784Z,0.30
2017-12-11T09:08:51.257Z,0.30
2017-12-11T09:10:53.958Z,0.30
2017-12-11T09:12:57.406Z,0.40
2017-12-11T09:15:00.063Z,0.40
2017-12-11T09:17:02.747Z,0.30
2017-12-11T09:19:05.406Z,0.30
2017-12-11T09:21:08.064Z,0.30
2017-12-11T09:23:10.729Z,0.30
2017-12-11T09:25:14.145Z,0.30
2017-12-11T09:27:16.822Z,0.30
2017-12-11T09:29:19.465Z,0.30
2017-12-11T09:31:22.891Z,0.30
2017-12-11T09:33:25.566Z,0.30
2017-12-11T09:35:28.211Z,0.30
2017-12-11T09:37:31.635Z,0.30
2017-12-11T09:39:34.308Z,0.30
2017-12-11T09:41:37.005Z,0.30
2017-12-11T09:43:39.762Z,0.30
2017-12-11T09:45:42.463Z,0.30
2017-12-11T09:47:45.135Z,0.30
2017-12-11T09:49:47.805Z,0.30
2017-12-11T09:51:50.584Z,0.30
2017-12-11T09:53:53.242Z,0.30
2017-12-11T09:55:55.920Z,0.30
2017-12-11T09:57:58.724Z,0.30
2017-12-11T10:00:02.187Z,0.30
2017-12-11T10:02:04.900Z,0.30
2017-12-11T10:04:07.759Z,0.30
2017-12-11T10:06:10.497Z,0.30
2017-12-11T10:08:13.980Z,0.30
2017-12-11T10:10:16.628Z,0.30
2017-12-11T10:12:19.469Z,0.30
2017-12-11T10:14:24.018Z,0.30
2017-12-11T10:16:26.707Z,0.30
2017-12-11T10:18:29.403Z,0.30
2017-12-11T10:20:32.153Z,0.30
2017-12-11T10:22:34.859Z,0.30
2017-12-11T10:24:37.548Z,0.30
2017-12-11T10:26:40.966Z,0.30
2017-12-11T10:28:43.616Z,0.30
2017-12-11T10:30:46.287Z,0.30
2017-12-11T10:32:49.017Z,0.30
2017-12-11T10:34:51.666Z,0.30
2017-12-11T10:36:55.123Z,0.30
2017-12-11T10:38:57.784Z,0.30
2017-12-11T10:41:00.432Z,0.30
2017-12-11T10:43:03.115Z,0.30
2017-12-11T10:45:05.887Z,0.30
2017-12-11T10:47:08.836Z,0.30
2017-12-11T10:49:12.295Z,0.30
2017-12-11T10:51:15.045Z,0.30
2017-12-11T10:53:17.790Z,0.30
2017-12-11T10:55:21.226Z,0.30
2017-12-11T10:57:23.945Z,0.30
2017-12-11T10:59:31.841Z,0.40
2017-12-11T11:01:34.551Z,0.40
2017-12-11T11:03:37.957Z,0.40
2017-12-11T11:05:40.771Z,0.40
2017-12-11T11:07:43.468Z,0.40
2017-12-11T11:09:46.105Z,0.40
2017-12-11T11:11:48.753Z,0.40
2017-12-11T11:13:51.400Z,0.50
2017-12-11T11:15:54.086Z,0.50
2017-12-11T11:17:58.217Z,0.50
2017-12-11T11:20:00.991Z,0.50
2017-12-11T11:22:04.429Z,0.50
2017-12-11T11:24:07.149Z,0.50
2017-12-11T11:26:10.576Z,0.60
2017-12-11T11:28:14.282Z,0.50
2017-12-11T11:30:16.977Z,0.60
2017-12-11T11:32:19.626Z,0.60
2017-12-11T11:34:22.274Z,0.60
2017-12-11T11:36:25.704Z,0.60
2017-12-11T11:38:28.375Z,0.60
2017-12-11T11:40:31.201Z,0.60
2017-12-11T11:42:33.868Z,0.60
2017-12-11T11:44:36.509Z,0.60
2017-12-11T11:46:39.154Z,0.60
2017-12-11T11:48:42.604Z,0.50
2017-12-11T11:50:45.257Z,0.50
2017-12-11T11:52:47.945Z,0.60
2017-12-11T11:54:50.785Z,0.60
2017-12-11T11:56:54.263Z,0.60
2017-12-11T11:58:56.988Z,0.50
2017-12-11T12:00:59.831Z,0.50
2017-12-11T12:03:03.260Z,0.50
2017-12-11T12:05:05.928Z,0.50
2017-12-11T12:07:08.642Z,0.50
2017-12-11T12:09:11.726Z,0.50
2017-12-11T12:11:14.446Z,0.50
2017-12-11T12:13:17.892Z,0.50
2017-12-11T12:15:20.583Z,0.40
2017-12-11T12:17:23.272Z,0.50
2017-12-11T12:19:25.969Z,0.50
2017-12-11T12:21:29.393Z,0.50
2017-12-11T12:23:32.052Z,0.40
2017-12-11T12:25:34.746Z,0.40
2017-12-11T12:27:37.413Z,0.50
2017-12-11T12:29:40.197Z,0.50
2017-12-11T12:31:42.928Z,0.50
2017-12-11T12:33:45.602Z,0.50
2017-12-11T12:35:48.361Z,0.50
2017-12-11T12:37:51.040Z,0.60
2017-12-11T12:39:53.680Z,0.60
2017-12-11T12:41:56.396Z,0.60
2017-12-11T12:43:59.049Z,0.60
2017-12-11T12:46:01.709Z,0.60
2017-12-11T12:48:04.393Z,0.60
2017-12-11T12:50:07.037Z,0.60
2017-12-11T12:52:10.453Z,0.60
2017-12-11T12:54:13.137Z,0.60
2017-12-11T12:56:15.831Z,0.60
2017-12-11T12:58:18.489Z,0.60
2017-12-11T13:00:21.166Z,0.60
2017-12-11T13:02:23.801Z,0.60
2017-12-11T13:04:26.483Z,0.60
2017-12-11T13:06:29.941Z,0.70
2017-12-11T13:08:32.602Z,0.70
2017-12-11T13:10:35.312Z,0.70
2017-12-11T13:12:38.140Z,0.70
2017-12-11T13:14:40.807Z,0.70
2017-12-11T13:16:43.501Z,0.70
2017-12-11T13:18:46.155Z,0.70
2017-12-11T13:20:48.811Z,0.70
2017-12-11T13:22:52.252Z,0.70
2017-12-11T13:24:54.916Z,0.70
2017-12-11T13:26:57.579Z,0.70
2017-12-11T13:29:00.519Z,0.70
2017-12-11T13:31:03.170Z,0.70
2017-12-11T13:33:05.874Z,0.70
2017-12-11T13:35:08.594Z,0.70
2017-12-11T13:37:11.256Z,0.80
2017-12-11T13:39:13.905Z,0.80
2017-12-11T13:41:16.592Z,0.70
2017-12-11T13:43:20.001Z,0.80
2017-12-11T13:45:22.649Z,0.70
2017-12-11T13:47:26.103Z,0.80
2017-12-11T13:49:28.758Z,0.70
2017-12-11T13:51:31.402Z,0.80
2017-12-11T13:53:34.852Z,0.90
2017-12-11T13:55:37.848Z,0.80
2017-12-11T13:57:40.504Z,0.90
2017-12-11T13:59:43.183Z,0.90
2017-12-11T14:01:45.831Z,0.90
2017-12-11T14:03:48.495Z,0.90
2017-12-11T14:05:51.937Z,1.00
2017-12-11T14:07:54.608Z,0.90
2017-12-11T14:09:57.471Z,1.00
2017-12-11T14:12:00.228Z,1.00
2017-12-11T14:14:03.663Z,1.00
2017-12-11T14:16:06.344Z,1.00
2017-12-11T14:18:08.988Z,1.00
2017-12-11T14:20:11.642Z,1.00
2017-12-11T14:22:15.124Z,1.00
2017-12-11T14:24:18.762Z,1.00
2017-12-11T14:26:21.405Z,1.00
2017-12-11T14:28:24.854Z,1.00
2017-12-11T14:30:27.533Z,1.00
2017-12-11T14:32:30.270Z,1.00
2017-12-11T14:34:32.957Z,1.00
2017-12-11T14:36:35.616Z,1.00
2017-12-11T14:38:38.280Z,1.00
2017-12-11T14:40:41.751Z,1.00
2017-12-11T14:42:44.390Z,1.00
2017-12-11T14:44:47.038Z,1.00
2017-12-11T14:46:50.483Z,1.00
2017-12-11T14:48:53.125Z,1.00
2017-12-11T14:50:55.782Z,1.00
2017-12-11T14:52:59.226Z,1.00
2017-12-11T14:55:01.887Z,1.00
2017-12-11T14:57:04.650Z,1.00
2017-12-11T14:59:07.335Z,1.00
2017-12-11T15:01:09.985Z,1.00
2017-12-11T15:03:13.423Z,1.00
2017-12-11T15:05:16.281Z,1.00
2017-12-11T15:07:18.970Z,1.10
2017-12-11T15:09:21.616Z,1.10
2017-12-11T15:11:24.456Z,1.10
2017-12-11T15:13:27.138Z,1.10
2017-12-11T15:15:29.778Z,1.10
2017-12-11T15:17:32.453Z,1.10
2017-12-11T15:19:35.127Z,1.10
2017-12-11T15:21:37.796Z,1.10
2017-12-11T15:23:40.583Z,1.10
2017-12-11T15:25:43.245Z,1.10
2017-12-11T15:27:45.963Z,1.10
2017-12-11T15:29:48.677Z,1.10
2017-12-11T15:31:52.114Z,1.10
2017-12-11T15:33:54.802Z,1.10
2017-12-11T15:35:57.647Z,1.10
2017-12-11T15:38:00.329Z,1.10
2017-12-11T15:40:04.063Z,1.00
2017-12-11T15:42:06.775Z,1.00
2017-12-11T15:44:10.211Z,1.00
2017-12-11T15:46:12.891Z,1.00
2017-12-11T15:48:15.599Z,1.00
2017-12-11T15:50:18.277Z,1.00
2017-12-11T15:52:20.972Z,1.00
2017-12-11T15:54:24.441Z,1.00
2017-12-11T15:56:27.111Z,0.90
2017-12-11T15:58:29.790Z,1.00
2017-12-11T16:00:32.475Z,1.00
2017-12-11T16:02:35.227Z,1.00
2017-12-11T16:04:38.081Z,0.90
2017-12-11T16:06:40.773Z,1.00
2017-12-11T16:08:43.470Z,1.00
2017-12-11T16:10:46.226Z,1.00
2017-12-11T16:12:48.932Z,1.00
2017-12-11T16:14:51.591Z,1.00
2017-12-11T16:16:54.242Z,1.00
2017-12-11T16:18:56.942Z,1.10
2017-12-11T16:20:59.628Z,1.10
2017-12-11T16:23:02.490Z,1.10
2017-12-11T16:25:05.625Z,1.10
2017-12-11T16:27:09.077Z,1.00
2017-12-11T16:29:11.837Z,1.00
2017-12-11T16:31:14.630Z,1.00
2017-12-11T16:33:17.327Z,1.10
2017-12-11T16:35:20.015Z,1.10
2017-12-11T16:37:22.815Z,1.10
2017-12-11T16:39:26.278Z,1.10
2017-12-11T16:41:29.273Z,1.10
2017-12-11T16:43:32.214Z,1.10
2017-12-11T16:45:35.030Z,1.10
2017-12-11T16:47:41.801Z,1.10
2017-12-11T16:49:44.475Z,1.10
2017-12-11T16:51:47.133Z,1.10
2017-12-11T16:53:49.812Z,1.10
2017-12-11T16:55:52.462Z,1.10
2017-12-11T16:57:55.157Z,1.10
2017-12-11T16:59:57.836Z,1.10
2017-12-11T17:02:00.571Z,1.10
2017-12-11T17:04:04.236Z,1.20
2017-12-11T17:06:08.079Z,1.10
2017-12-11T17:08:11.617Z,1.10
2017-12-11T17:10:14.316Z,1.10
2017-12-11T17:12:16.967Z,1.20
2017-12-11T17:14:19.633Z,1.20
2017-12-11T17:16:22.323Z,1.20
2017-12-11T17:18:24.960Z,1.20
2017-12-11T17:20:27.604Z,1.20
2017-12-11T17:22:30.284Z,1.10
2017-12-11T17:24:32.947Z,1.20
2017-12-11T17:26:35.678Z,1.10
2017-12-11T17:28:38.363Z,1.20
2017-12-11T17:30:41.005Z,1.20
2017-12-11T17:32:44.416Z,1.20
2017-12-11T17:34:47.223Z,1.20
2017-12-11T17:36:49.884Z,1.20
2017-12-11T17:38:52.546Z,1.20
2017-12-11T17:40:55.349Z,1.20
2017-12-11T17:42:57.999Z,1.20
2017-12-11T17:45:00.686Z,1.20
2017-12-11T17:47:03.378Z,1.20
2017-12-11T17:49:06.096Z,1.20
2017-12-11T17:51:08.775Z,1.20
2017-12-11T17:53:11.463Z,1.20
2017-12-11T17:55:14.900Z,1.20
2017-12-11T17:57:17.796Z,1.20
2017-12-11T17:59:20.668Z,1.20
2017-12-11T18:01:23.367Z,1.20
2017-12-11T18:03:26.105Z,1.20
2017-12-11T18:05:28.794Z,1.20
2017-12-11T18:07:31.648Z,1.30
2017-12-11T18:09:34.304Z,1.30
2017-12-11T18:11:37.767Z,1.30
2017-12-11T18:13:40.485Z,1.30
2017-12-11T18:15:43.897Z,1.30
2017-12-11T18:17:46.588Z,1.30
2017-12-11T18:19:49.261Z,1.30
2017-12-11T18:21:51.919Z,1.30
2017-12-11T18:23:54.582Z,1.30
2017-12-11T18:25:58.012Z,1.30
2017-12-11T18:28:00.671Z,1.30
2017-12-11T18:30:03.374Z,1.30
2017-12-11T18:32:06.031Z,1.30
2017-12-11T18:34:08.751Z,1.40
2017-12-11T18:36:11.421Z,1.40
2017-12-11T18:38:14.145Z,1.40
2017-12-11T18:40:16.945Z,1.40
2017-12-11T18:42:19.629Z,1.40
2017-12-11T18:44:22.315Z,1.30
2017-12-11T18:46:24.978Z,1.30
2017-12-11T18:48:27.621Z,1.40
2017-12-11T18:50:30.287Z,1.30
2017-12-11T18:52:33.738Z,1.30
2017-12-11T18:54:36.393Z,1.30
2017-12-11T18:56:39.217Z,1.30
2017-12-11T18:58:42.048Z,1.30
2017-12-11T19:00:44.734Z,1.30
2017-12-11T19:02:48.031Z,1.30
2017-12-11T19:04:50.916Z,1.30
2017-12-11T19:06:54.316Z,1.30
2017-12-11T19:08:56.980Z,1.30
2017-12-11T19:10:59.659Z,1.30
2017-12-11T19:13:02.419Z,1.40
2017-12-11T19:15:05.100Z,1.40
2017-12-11T19:17:07.790Z,1.30
2017-12-11T19:19:10.776Z,1.30
2017-12-11T19:21:13.482Z,1.30
2017-12-11T19:23:16.250Z,1.30
2017-12-11T19:25:18.916Z,1.30
2017-12-11T19:27:21.607Z,1.30
2017-12-11T19:29:24.365Z,1.30
2017-12-11T19:31:27.032Z,1.30
2017-12-11T19:33:29.692Z,1.40
2017-12-11T19:35:32.377Z,1.60
2017-12-11T19:37:35.052Z,1.80
2017-12-11T19:39:37.928Z,1.90
2017-12-11T19:41:40.812Z,1.90
2017-12-11T19:43:43.502Z,1.70
2017-12-11T19:45:46.194Z,1.60
2017-12-11T19:47:49.358Z,1.50
2017-12-11T19:49:52.054Z,1.40
2017-12-11T19:51:54.763Z,1.40
2017-12-11T19:53:58.353Z,1.30
2017-12-11T19:56:01.243Z,1.30
2017-12-11T19:58:04.688Z,1.30
2017-12-11T20:00:07.547Z,1.30
2017-12-11T20:02:10.199Z,1.30
2017-12-11T20:04:12.984Z,1.20
2017-12-11T20:06:16.412Z,1.20
2017-12-11T20:08:19.081Z,1.20
2017-12-11T20:10:21.729Z,1.30
2017-12-11T20:12:25.142Z,1.20
2017-12-11T20:14:28.099Z,1.20
2017-12-11T20:16:31.623Z,1.20
2017-12-11T20:18:34.280Z,1.20
2017-12-11T20:20:37.904Z,1.20
2017-12-11T20:22:40.678Z,1.20
2017-12-11T20:24:43.468Z,1.20
2017-12-11T20:26:46.259Z,1.10
2017-12-11T20:28:49.042Z,1.10
2017-12-11T20:30:51.724Z,1.10
2017-12-11T20:32:54.414Z,1.10
2017-12-11T20:34:57.057Z,1.00
2017-12-11T20:37:01.095Z,1.00
2017-12-11T20:39:04.693Z,1.00
2017-12-11T20:41:07.638Z,1.00
2017-12-11T20:43:10.308Z,0.90
2017-12-11T20:45:13.003Z,0.90
2017-12-11T20:47:15.658Z,0.90
2017-12-11T20:49:18.347Z,0.90
2017-12-11T20:51:21.040Z,0.90
2017-12-11T20:53:23.733Z,0.90
2017-12-11T20:55:26.398Z,0.90
2017-12-11T20:57:29.985Z,0.90
2017-12-11T20:59:32.825Z,0.80
2017-12-11T21:01:39.929Z,0.90
2017-12-11T21:03:42.638Z,0.80
2017-12-11T21:05:46.111Z,0.80
2017-12-11T21:07:49.011Z,0.80
2017-12-11T21:09:51.685Z,0.70
2017-12-11T21:11:54.340Z,0.70
2017-12-11T21:13:56.977Z,0.70
2017-12-11T21:16:00.829Z,0.70
2017-12-11T21:18:03.531Z,0.60
2017-12-11T21:20:06.357Z,0.70
2017-12-11T21:22:09.058Z,0.60
2017-12-11T21:24:11.730Z,0.70
2017-12-11T21:26:14.433Z,0.60
2017-12-11T21:28:17.128Z,0.60
2017-12-11T21:30:20.582Z,0.60
2017-12-11T21:32:23.271Z,0.60
2017-12-11T21:34:25.987Z,0.60
2017-12-11T21:36:29.393Z,0.60
2017-12-11T21:38:32.042Z,0.60
2017-12-11T21:40:34.734Z,0.60
2017-12-11T21:42:38.272Z,0.60
2017-12-11T21:44:40.986Z,0.50
2017-12-11T21:46:43.808Z,0.50
2017-12-11T21:48:46.481Z,0.50
2017-12-11T21:50:49.168Z,0.50
2017-12-11T21:52:51.951Z,0.50
2017-12-11T21:54:54.610Z,0.50
2017-12-11T21:56:57.301Z,0.50
2017-12-11T21:58:59.995Z,0.50
2017-12-11T22:01:02.667Z,0.50
2017-12-11T22:03:05.368Z,0.50
2017-12-11T22:05:08.100Z,0.50
2017-12-11T22:07:10.748Z,0.50
2017-12-11T22:09:14.185Z,0.50
2017-12-11T22:11:16.882Z,0.50
2017-12-11T22:13:19.555Z,0.50
2017-12-11T22:15:22.218Z,0.50
2017-12-11T22:17:25.043Z,0.40
2017-12-11T22:19:28.470Z,0.40
2017-12-11T22:21:31.143Z,0.40
2017-12-11T22:23:33.859Z,0.40
2017-12-11T22:25:36.562Z,0.50
2017-12-11T22:27:40.339Z,0.40
2017-12-11T22:29:43.122Z,0.40
2017-12-11T22:31:45.757Z,0.30
2017-12-11T22:33:48.529Z,0.40
2017-12-11T22:35:51.192Z,0.30
2017-12-11T22:37:54.616Z,0.30
2017-12-11T22:39:57.381Z,0.30
2017-12-11T22:42:00.053Z,0.30
2017-12-11T22:44:02.717Z,0.30
2017-12-11T22:46:06.221Z,0.30
2017-12-11T22:48:08.908Z,0.30
2017-12-11T22:50:11.582Z,0.30
2017-12-11T22:52:16.341Z,0.40
2017-12-11T22:54:19.107Z,0.30
2017-12-11T22:56:21.858Z,0.30
2017-12-11T22:58:24.517Z,0.30
2017-12-11T23:00:31.904Z,0.30
2017-12-11T23:02:35.344Z,0.30
2017-12-11T23:04:37.987Z,0.30
2017-12-11T23:06:40.799Z,0.30
2017-12-11T23:08:43.458Z,0.30
2017-12-11T23:10:46.116Z,0.40
2017-12-11T23:12:48.904Z,0.40
2017-12-11T23:14:51.580Z,0.30
2017-12-11T23:16:54.263Z,0.40
2017-12-11T23:18:58.254Z,0.40
2017-12-11T23:21:00.915Z,0.50
2017-12-11T23:23:04.333Z,0.50
2017-12-11T23:25:07.288Z,0.40
2017-12-11T23:27:10.734Z,0.50
2017-12-11T23:29:13.416Z,0.40
2017-12-11T23:31:16.064Z,0.50
2017-12-11T23:33:18.716Z,0.50
2017-12-11T23:35:22.334Z,0.50
2017-12-11T23:37:24.991Z,0.50
2017-12-11T23:39:28.429Z,0.50
2017-12-11T23:41:31.265Z,0.40
2017-12-11T23:43:34.685Z,0.50
2017-12-11T23:45:37.363Z,0.50
2017-12-11T23:47:40.006Z,0.50
2017-12-11T23:49:43.511Z,0.50
2017-12-11T23:51:46.173Z,0.50
2017-12-11T23:53:49.598Z,0.60
2017-12-11T23:55:52.255Z,0.50
2017-12-11T23:57:54.951Z,0.60
2017-12-11T23:59:57.737Z,0.60
